createdAt,value
2018-08-01T00:00:03.032Z,806.42
2018-08-01T00:00:07.337Z,806.38
2018-08-01T00:00:11.654Z,806.42
2018-08-01T00:00:15.895Z,806.39
2018-08-01T00:00:20.096Z,806.38
2018-08-01T00:00:24.300Z,806.41
2018-08-01T00:00:28.607Z,806.34
2018-08-01T00:00:32.707Z,806.38
2018-08-01T00:00:37.020Z,806.38
2018-08-01T00:00:41.275Z,806.38
2018-08-01T00:00:45.588Z,806.39
2018-08-01T00:00:49.786Z,806.36
2018-08-01T00:00:54.107Z,806.36
2018-08-01T00:00:58.312Z,806.36
2018-08-01T00:01:02.616Z,806.33
2018-08-01T00:01:06.708Z,806.35
2018-08-01T00:01:10.913Z,806.34
2018-08-01T00:01:15.011Z,806.29
2018-08-01T00:01:19.369Z,806.33
2018-08-01T00:01:23.460Z,806.32
2018-08-01T00:01:27.669Z,806.3
2018-08-01T00:01:31.983Z,806.3
2018-08-01T00:01:36.077Z,806.31
2018-08-01T00:01:40.072Z,806.28
2018-08-01T00:01:43.952Z,806.28
2018-08-01T00:01:48.147Z,806.28
2018-08-01T00:01:52.460Z,806.25
2018-08-01T00:01:56.767Z,806.27
2018-08-01T00:02:00.968Z,806.26
2018-08-01T00:02:05.124Z,806.23
2018-08-01T00:02:09.011Z,806.25
2018-08-01T00:02:13.101Z,806.23
2018-08-01T00:02:17.299Z,806.24
2018-08-01T00:02:21.493Z,806.23
2018-08-01T00:02:25.803Z,806.24
2018-08-01T00:02:30.006Z,806.21
2018-08-01T00:02:34.321Z,806.21
2018-08-01T00:02:38.416Z,806.22
2018-08-01T00:02:42.620Z,806.14
2018-08-01T00:02:46.829Z,806.18
2018-08-01T00:02:51.025Z,806.18
2018-08-01T00:02:55.227Z,806.19
2018-08-01T00:02:59.539Z,806.19
2018-08-01T00:03:03.734Z,806.17
2018-08-01T00:03:07.826Z,806.16
2018-08-01T00:03:12.136Z,806.14
2018-08-01T00:03:16.445Z,806.07
2018-08-01T00:03:20.639Z,806.13
2018-08-01T00:03:24.834Z,806.1
2018-08-01T00:03:29.143Z,806.11
2018-08-01T00:03:33.339Z,806.1
2018-08-01T00:03:37.542Z,806.13
2018-08-01T00:03:41.845Z,806.08
2018-08-01T00:03:45.939Z,806.05
2018-08-01T00:03:50.243Z,806.1
2018-08-01T00:03:54.551Z,806.09
2018-08-01T00:03:58.537Z,806.07
2018-08-01T00:04:02.742Z,806.01
2018-08-01T00:04:06.945Z,806.02
2018-08-01T00:04:11.047Z,806.01
2018-08-01T00:04:15.250Z,806.04
2018-08-01T00:04:19.453Z,806.03
2018-08-01T00:04:23.652Z,806.01
2018-08-01T00:04:27.635Z,806
2018-08-01T00:04:31.829Z,806
2018-08-01T00:04:36.145Z,806.01
2018-08-01T00:04:40.349Z,805.99
2018-08-01T00:04:44.657Z,805.95
2018-08-01T00:04:48.960Z,805.97
2018-08-01T00:04:53.050Z,805.98
2018-08-01T00:04:57.357Z,805.98
2018-08-01T00:05:01.554Z,805.94
2018-08-01T00:05:05.801Z,805.93
2018-08-01T00:05:09.892Z,805.91
2018-08-01T00:05:13.993Z,805.92
2018-08-01T00:05:18.295Z,805.91
2018-08-01T00:05:22.391Z,805.92
2018-08-01T00:05:26.684Z,805.94
2018-08-01T00:05:30.996Z,805.91
2018-08-01T00:05:35.199Z,805.89
2018-08-01T00:05:39.503Z,805.9
2018-08-01T00:05:43.599Z,805.86
2018-08-01T00:05:47.795Z,805.89
2018-08-01T00:05:52.000Z,805.9
2018-08-01T00:05:56.199Z,805.89
2018-08-01T00:06:00.289Z,805.89
2018-08-01T00:06:04.586Z,805.86
2018-08-01T00:06:08.792Z,805.86
2018-08-01T00:06:12.884Z,805.87
2018-08-01T00:06:17.188Z,805.87
2018-08-01T00:06:21.380Z,805.85
2018-08-01T00:06:25.681Z,805.86
2018-08-01T00:06:29.879Z,805.83
2018-08-01T00:06:34.187Z,805.85
2018-08-01T00:06:38.273Z,805.84
2018-08-01T00:06:42.575Z,805.83
2018-08-01T00:06:46.777Z,805.84
2018-08-01T00:06:50.874Z,805.82
2018-08-01T00:06:54.964Z,805.81
2018-08-01T00:06:59.171Z,805.8
2018-08-01T00:07:03.261Z,805.78
2018-08-01T00:07:07.463Z,805.82
2018-08-01T00:07:11.941Z,805.81
2018-08-01T00:07:16.159Z,805.8
2018-08-01T00:07:20.764Z,805.79
2018-08-01T00:07:25.680Z,805.81
2018-08-01T00:07:30.102Z,805.83
2018-08-01T00:07:34.653Z,805.83
2018-08-01T00:07:39.407Z,805.83
2018-08-01T00:07:43.672Z,805.81
2018-08-01T00:07:48.183Z,805.8
2018-08-01T00:07:52.383Z,805.77
2018-08-01T00:07:56.583Z,805.81
2018-08-01T00:08:00.791Z,805.78
2018-08-01T00:08:04.882Z,805.79
2018-08-01T00:08:09.081Z,805.82
2018-08-01T00:08:13.398Z,805.79
2018-08-01T00:08:17.706Z,805.8
2018-08-01T00:08:21.697Z,805.8
2018-08-01T00:08:25.797Z,805.8
2018-08-01T00:08:29.887Z,805.76
2018-08-01T00:08:34.241Z,805.79
2018-08-01T00:08:38.340Z,805.78
2018-08-01T00:08:42.541Z,805.76
2018-08-01T00:08:46.846Z,805.78
2018-08-01T00:08:51.046Z,805.76
2018-08-01T00:08:55.354Z,805.77
2018-08-01T00:08:59.560Z,805.77
2018-08-01T00:09:03.544Z,805.8
2018-08-01T00:09:07.641Z,805.78
2018-08-01T00:09:11.739Z,805.72
2018-08-01T00:09:16.048Z,805.77
2018-08-01T00:09:20.353Z,805.76
2018-08-01T00:09:24.455Z,805.74
2018-08-01T00:09:28.335Z,805.76
2018-08-01T00:09:32.427Z,805.8
2018-08-01T00:09:36.732Z,805.76
2018-08-01T00:09:40.984Z,805.75
2018-08-01T00:09:44.971Z,805.74
2018-08-01T00:09:49.068Z,805.74
2018-08-01T00:09:53.376Z,805.75
2018-08-01T00:09:57.681Z,805.76
2018-08-01T00:10:01.883Z,805.78
2018-08-01T00:10:05.980Z,805.75
2018-08-01T00:10:10.177Z,805.76
2018-08-01T00:10:14.501Z,805.77
2018-08-01T00:10:18.605Z,805.74
2018-08-01T00:10:22.696Z,805.74
2018-08-01T00:10:26.791Z,805.71
2018-08-01T00:10:30.993Z,805.72
2018-08-01T00:10:35.310Z,805.75
2018-08-01T00:10:39.514Z,805.75
2018-08-01T00:10:43.725Z,805.77
2018-08-01T00:10:47.925Z,805.77
2018-08-01T00:10:52.135Z,805.75
2018-08-01T00:10:56.440Z,805.78
2018-08-01T00:11:00.540Z,805.77
2018-08-01T00:11:04.868Z,805.76
2018-08-01T00:11:08.960Z,805.75
2018-08-01T00:11:13.054Z,805.69
2018-08-01T00:11:17.263Z,805.76
2018-08-01T00:11:21.568Z,805.76
2018-08-01T00:11:25.767Z,805.75
2018-08-01T00:11:29.963Z,805.77
2018-08-01T00:11:34.164Z,805.75
2018-08-01T00:11:38.368Z,805.75
2018-08-01T00:11:42.457Z,805.75
2018-08-01T00:11:46.653Z,805.78
2018-08-01T00:11:50.960Z,805.76
2018-08-01T00:11:55.048Z,805.75
2018-08-01T00:11:59.245Z,805.76
2018-08-01T00:12:03.439Z,805.78
2018-08-01T00:12:07.635Z,805.77
2018-08-01T00:12:11.721Z,805.76
2018-08-01T00:12:15.860Z,805.75
2018-08-01T00:12:19.951Z,805.79
2018-08-01T00:12:24.256Z,805.75
2018-08-01T00:12:28.345Z,805.74
2018-08-01T00:12:32.657Z,805.77
2018-08-01T00:12:36.964Z,805.7
2018-08-01T00:12:41.275Z,805.77
2018-08-01T00:12:45.477Z,805.77
2018-08-01T00:12:49.673Z,805.78
2018-08-01T00:12:53.883Z,805.73
2018-08-01T00:12:57.972Z,805.77
2018-08-01T00:13:02.276Z,805.79
2018-08-01T00:13:06.371Z,805.75
2018-08-01T00:13:10.677Z,805.78
2018-08-01T00:13:14.884Z,805.75
2018-08-01T00:13:19.095Z,805.78
2018-08-01T00:13:23.298Z,805.79
2018-08-01T00:13:27.498Z,805.75
2018-08-01T00:13:31.692Z,805.76
2018-08-01T00:13:35.997Z,805.76
2018-08-01T00:13:40.195Z,805.78
2018-08-01T00:13:44.401Z,805.78
2018-08-01T00:13:48.704Z,805.74
2018-08-01T00:13:52.902Z,805.79
2018-08-01T00:13:57.212Z,805.78
2018-08-01T00:14:01.308Z,805.74
2018-08-01T00:14:05.659Z,805.78
2018-08-01T00:14:09.866Z,805.79
2018-08-01T00:14:14.168Z,805.79
2018-08-01T00:14:18.258Z,805.72
2018-08-01T00:14:22.249Z,805.71
2018-08-01T00:14:26.337Z,805.76
2018-08-01T00:14:30.426Z,805.79
2018-08-01T00:14:34.746Z,805.75
2018-08-01T00:14:38.944Z,805.76
2018-08-01T00:14:43.144Z,805.78
2018-08-01T00:14:47.340Z,805.77
2018-08-01T00:14:51.561Z,805.78
2018-08-01T00:14:55.557Z,805.78
2018-08-01T00:14:59.548Z,805.81
2018-08-01T00:15:03.861Z,805.74
2018-08-01T00:15:08.064Z,805.77
2018-08-01T00:15:12.371Z,805.78
2018-08-01T00:15:16.468Z,805.79
2018-08-01T00:15:20.671Z,805.76
2018-08-01T00:15:24.778Z,805.78
2018-08-01T00:15:28.873Z,805.79
2018-08-01T00:15:33.081Z,805.77
2018-08-01T00:15:37.409Z,805.73
2018-08-01T00:15:41.713Z,805.75
2018-08-01T00:15:45.799Z,805.74
2018-08-01T00:15:50.115Z,805.76
2018-08-01T00:15:54.415Z,805.78
2018-08-01T00:15:58.615Z,805.78
2018-08-01T00:16:02.762Z,805.8
2018-08-01T00:16:06.963Z,805.79
2018-08-01T00:16:11.160Z,805.76
2018-08-01T00:16:15.368Z,805.77
2018-08-01T00:16:19.673Z,805.75
2018-08-01T00:16:23.878Z,805.78
2018-08-01T00:16:28.078Z,805.76
2018-08-01T00:16:32.386Z,805.77
2018-08-01T00:16:36.473Z,805.77
2018-08-01T00:16:40.776Z,805.74
2018-08-01T00:16:45.081Z,805.78
2018-08-01T00:16:49.179Z,805.8
2018-08-01T00:16:53.377Z,805.81
2018-08-01T00:16:57.470Z,805.76
2018-08-01T00:17:01.671Z,805.77
2018-08-01T00:17:05.875Z,805.78
2018-08-01T00:17:10.074Z,805.83
2018-08-01T00:17:14.270Z,805.79
2018-08-01T00:17:18.570Z,805.79
2018-08-01T00:17:22.556Z,805.77
2018-08-01T00:17:26.756Z,805.78
2018-08-01T00:17:31.055Z,805.76
2018-08-01T00:17:35.252Z,805.75
2018-08-01T00:17:39.554Z,805.78
2018-08-01T00:17:43.756Z,805.8
2018-08-01T00:17:48.070Z,805.82
2018-08-01T00:17:52.261Z,805.8
2018-08-01T00:17:56.469Z,805.77
2018-08-01T00:18:00.771Z,805.76
2018-08-01T00:18:04.864Z,805.81
2018-08-01T00:18:09.053Z,805.85
2018-08-01T00:18:13.245Z,805.8
2018-08-01T00:18:17.444Z,805.8
2018-08-01T00:18:21.461Z,805.8
2018-08-01T00:18:25.768Z,805.75
2018-08-01T00:18:29.962Z,805.84
2018-08-01T00:18:34.273Z,805.84
2018-08-01T00:18:38.255Z,805.85
2018-08-01T00:18:42.345Z,805.84
2018-08-01T00:18:46.548Z,805.84
2018-08-01T00:18:50.855Z,805.82
2018-08-01T00:18:55.154Z,805.81
2018-08-01T00:18:59.353Z,805.82
2018-08-01T00:19:03.702Z,805.83
2018-08-01T00:19:07.999Z,805.83
2018-08-01T00:19:12.100Z,805.85
2018-08-01T00:19:16.197Z,805.8
2018-08-01T00:19:20.507Z,805.79
2018-08-01T00:19:24.496Z,805.79
2018-08-01T00:19:28.514Z,805.81
2018-08-01T00:19:32.813Z,805.79
2018-08-01T00:19:37.008Z,805.75
2018-08-01T00:19:41.095Z,805.75
2018-08-01T00:19:45.417Z,805.72
2018-08-01T00:19:49.612Z,805.71
2018-08-01T00:19:53.599Z,805.7
2018-08-01T00:19:57.791Z,805.7
2018-08-01T00:20:02.086Z,805.68
2018-08-01T00:20:06.073Z,805.64
2018-08-01T00:20:10.168Z,805.63
2018-08-01T00:20:14.375Z,805.6
2018-08-01T00:20:18.465Z,805.6
2018-08-01T00:20:22.659Z,805.59
2018-08-01T00:20:26.857Z,805.57
2018-08-01T00:20:30.957Z,805.58
2018-08-01T00:20:35.252Z,805.54
2018-08-01T00:20:39.445Z,805.53
2018-08-01T00:20:43.744Z,805.51
2018-08-01T00:20:47.831Z,805.45
2018-08-01T00:20:51.913Z,805.5
2018-08-01T00:20:56.220Z,805.45
2018-08-01T00:21:00.412Z,805.42
2018-08-01T00:21:04.501Z,805.44
2018-08-01T00:21:08.809Z,805.43
2018-08-01T00:21:12.909Z,805.42
2018-08-01T00:21:17.213Z,805.36
2018-08-01T00:21:21.417Z,805.36
2018-08-01T00:21:25.722Z,805.33
2018-08-01T00:21:30.017Z,805.33
2018-08-01T00:21:34.327Z,805.32
2018-08-01T00:21:38.418Z,805.32
2018-08-01T00:21:42.397Z,805.28
2018-08-01T00:21:46.692Z,805.29
2018-08-01T00:21:50.887Z,805.3
2018-08-01T00:21:55.082Z,805.24
2018-08-01T00:21:59.169Z,805.24
2018-08-01T00:22:03.263Z,805.21
2018-08-01T00:22:07.355Z,805.25
2018-08-01T00:22:11.659Z,805.22
2018-08-01T00:22:16.011Z,805.21
2018-08-01T00:22:20.215Z,805.21
2018-08-01T00:22:24.296Z,805.19
2018-08-01T00:22:28.282Z,805.2
2018-08-01T00:22:32.482Z,805.17
2018-08-01T00:22:36.680Z,805.19
2018-08-01T00:22:40.874Z,805.17
2018-08-01T00:22:45.071Z,805.16
2018-08-01T00:22:49.164Z,805.14
2018-08-01T00:22:53.362Z,805.15
2018-08-01T00:22:57.458Z,805.14
2018-08-01T00:23:01.545Z,805.12
2018-08-01T00:23:05.633Z,805.13
2018-08-01T00:23:09.728Z,805.11
2018-08-01T00:23:13.935Z,805.05
2018-08-01T00:23:17.925Z,805.07
2018-08-01T00:23:22.228Z,805.05
2018-08-01T00:23:26.423Z,805.05
2018-08-01T00:23:30.728Z,805.04
2018-08-01T00:23:34.926Z,805.02
2018-08-01T00:23:39.120Z,805.02
2018-08-01T00:23:43.104Z,805.03
2018-08-01T00:23:47.302Z,805.02
2018-08-01T00:23:51.394Z,805
2018-08-01T00:23:55.486Z,805.01
2018-08-01T00:23:59.782Z,805.03
2018-08-01T00:24:04.096Z,805.01
2018-08-01T00:24:08.388Z,804.96
2018-08-01T00:24:12.582Z,804.99
2018-08-01T00:24:16.772Z,804.93
2018-08-01T00:24:20.865Z,804.97
2018-08-01T00:24:25.223Z,804.94
2018-08-01T00:24:29.194Z,804.92
2018-08-01T00:24:33.284Z,804.91
2018-08-01T00:24:37.595Z,804.89
2018-08-01T00:24:41.683Z,804.89
2018-08-01T00:24:45.986Z,804.82
2018-08-01T00:24:50.300Z,804.86
2018-08-01T00:24:54.602Z,804.85
2018-08-01T00:24:58.901Z,804.77
2018-08-01T00:25:03.300Z,804.81
2018-08-01T00:25:07.500Z,804.76
2018-08-01T00:25:11.591Z,804.77
2018-08-01T00:25:15.892Z,804.77
2018-08-01T00:25:20.090Z,804.71
2018-08-01T00:25:24.391Z,804.68
2018-08-01T00:25:28.692Z,804.7
2018-08-01T00:25:32.787Z,804.68
2018-08-01T00:25:36.981Z,804.69
2018-08-01T00:25:41.181Z,804.69
2018-08-01T00:25:45.385Z,804.67
2018-08-01T00:25:49.681Z,804.65
2018-08-01T00:25:53.772Z,804.65
2018-08-01T00:25:57.974Z,804.64
2018-08-01T00:26:02.069Z,804.61
2018-08-01T00:26:06.156Z,804.59
2018-08-01T00:26:10.356Z,804.6
2018-08-01T00:26:14.547Z,804.6
2018-08-01T00:26:18.637Z,804.58
2018-08-01T00:26:22.945Z,804.51
2018-08-01T00:26:27.248Z,804.5
2018-08-01T00:26:31.553Z,804.53
2018-08-01T00:26:35.976Z,804.53
2018-08-01T00:26:40.524Z,804.48
2018-08-01T00:26:45.289Z,804.48
2018-08-01T00:26:49.571Z,804.48
2018-08-01T00:26:53.662Z,804.47
2018-08-01T00:26:57.971Z,804.46
2018-08-01T00:27:02.180Z,804.45
2018-08-01T00:27:06.272Z,804.4
2018-08-01T00:27:10.577Z,804.42
2018-08-01T00:27:14.881Z,804.41
2018-08-01T00:27:19.189Z,804.41
2018-08-01T00:27:23.385Z,804.39
2018-08-01T00:27:27.585Z,804.36
2018-08-01T00:27:31.682Z,804.36
2018-08-01T00:27:35.889Z,804.36
2018-08-01T00:27:40.195Z,804.38
2018-08-01T00:27:44.399Z,804.31
2018-08-01T00:27:48.699Z,804.32
2018-08-01T00:27:53.008Z,804.32
2018-08-01T00:27:57.332Z,804.33
2018-08-01T00:28:01.639Z,804.26
2018-08-01T00:28:05.627Z,804.28
2018-08-01T00:28:09.611Z,804.25
2018-08-01T00:28:13.810Z,804.22
2018-08-01T00:28:18.009Z,804.25
2018-08-01T00:28:22.310Z,804.25
2018-08-01T00:28:26.616Z,804.26
2018-08-01T00:28:30.814Z,804.23
2018-08-01T00:28:34.907Z,804.17
2018-08-01T00:28:39.207Z,804.21
2018-08-01T00:28:43.296Z,804.18
2018-08-01T00:28:47.499Z,804.17
2018-08-01T00:28:51.741Z,804.17
2018-08-01T00:28:55.940Z,804.11
2018-08-01T00:29:00.244Z,804.15
2018-08-01T00:29:04.335Z,804.15
2018-08-01T00:29:08.536Z,804.09
2018-08-01T00:29:12.744Z,804.13
2018-08-01T00:29:16.936Z,804.1
2018-08-01T00:29:21.250Z,804.1
2018-08-01T00:29:25.447Z,804.07
2018-08-01T00:29:29.430Z,804.07
2018-08-01T00:29:33.518Z,804.03
2018-08-01T00:29:37.710Z,804.03
2018-08-01T00:29:41.907Z,804.04
2018-08-01T00:29:46.220Z,804.03
2018-08-01T00:29:50.420Z,804.01
2018-08-01T00:29:54.719Z,804.01
2018-08-01T00:29:58.812Z,804
2018-08-01T00:30:03.125Z,803.98
2018-08-01T00:30:07.335Z,803.96
2018-08-01T00:30:11.645Z,804
2018-08-01T00:30:15.745Z,803.94
2018-08-01T00:30:19.967Z,803.93
2018-08-01T00:30:24.146Z,803.9
2018-08-01T00:30:28.354Z,803.9
2018-08-01T00:30:32.549Z,803.85
2018-08-01T00:30:36.853Z,803.86
2018-08-01T00:30:41.052Z,803.86
2018-08-01T00:30:45.038Z,803.82
2018-08-01T00:30:49.338Z,803.83
2018-08-01T00:30:53.434Z,803.79
2018-08-01T00:30:57.637Z,803.76
2018-08-01T00:31:01.957Z,803.75
2018-08-01T00:31:06.060Z,803.77
2018-08-01T00:31:10.157Z,803.77
2018-08-01T00:31:14.355Z,803.74
2018-08-01T00:31:18.656Z,803.76
2018-08-01T00:31:22.851Z,803.76
2018-08-01T00:31:27.159Z,803.74
2018-08-01T00:31:31.364Z,803.74
2018-08-01T00:31:35.453Z,803.69
2018-08-01T00:31:39.761Z,803.7
2018-08-01T00:31:43.965Z,803.7
2018-08-01T00:31:48.168Z,803.71
2018-08-01T00:31:52.476Z,803.64
2018-08-01T00:31:56.681Z,803.64
2018-08-01T00:32:00.882Z,803.65
2018-08-01T00:32:04.970Z,803.62
2018-08-01T00:32:09.060Z,803.62
2018-08-01T00:32:13.254Z,803.62
2018-08-01T00:32:17.556Z,803.59
2018-08-01T00:32:21.863Z,803.59
2018-08-01T00:32:25.955Z,803.56
2018-08-01T00:32:30.162Z,803.56
2018-08-01T00:32:34.465Z,803.55
2018-08-01T00:32:38.663Z,803.56
2018-08-01T00:32:42.545Z,803.54
2018-08-01T00:32:46.750Z,803.53
2018-08-01T00:32:50.845Z,803.52
2018-08-01T00:32:55.087Z,803.5
2018-08-01T00:32:59.187Z,803.49
2018-08-01T00:33:03.495Z,803.47
2018-08-01T00:33:07.480Z,803.49
2018-08-01T00:33:11.679Z,803.47
2018-08-01T00:33:15.992Z,803.42
2018-08-01T00:33:20.188Z,803.43
2018-08-01T00:33:24.490Z,803.46
2018-08-01T00:33:28.688Z,803.47
2018-08-01T00:33:33.001Z,803.42
2018-08-01T00:33:37.306Z,803.38
2018-08-01T00:33:41.395Z,803.4
2018-08-01T00:33:45.374Z,803.37
2018-08-01T00:33:49.478Z,803.37
2018-08-01T00:33:53.792Z,803.38
2018-08-01T00:33:57.987Z,803.39
2018-08-01T00:34:02.132Z,803.34
2018-08-01T00:34:06.274Z,803.35
2018-08-01T00:34:10.360Z,803.33
2018-08-01T00:34:14.659Z,803.33
2018-08-01T00:34:18.963Z,803.36
2018-08-01T00:34:23.058Z,803.32
2018-08-01T00:34:27.142Z,803.3
2018-08-01T00:34:31.336Z,803.29
2018-08-01T00:34:35.531Z,803.27
2018-08-01T00:34:39.730Z,803.25
2018-08-01T00:34:43.927Z,803.26
2018-08-01T00:34:48.018Z,803.24
2018-08-01T00:34:52.216Z,803.23
2018-08-01T00:34:56.314Z,803.22
2018-08-01T00:35:00.507Z,803.24
2018-08-01T00:35:04.395Z,803.22
2018-08-01T00:35:08.379Z,803.22
2018-08-01T00:35:12.472Z,803.21
2018-08-01T00:35:16.669Z,803.22
2018-08-01T00:35:20.965Z,803.17
2018-08-01T00:35:25.163Z,803.18
2018-08-01T00:35:29.465Z,803.19
2018-08-01T00:35:33.554Z,803.15
2018-08-01T00:35:37.742Z,803.16
2018-08-01T00:35:41.939Z,803.15
2018-08-01T00:35:46.129Z,803.13
2018-08-01T00:35:50.323Z,803.16
2018-08-01T00:35:54.522Z,803.13
2018-08-01T00:35:58.720Z,803.12
2018-08-01T00:36:02.921Z,803.1
2018-08-01T00:36:07.011Z,803.1
2018-08-01T00:36:11.309Z,803.12
2018-08-01T00:36:15.504Z,803.11
2018-08-01T00:36:19.704Z,803.09
2018-08-01T00:36:23.799Z,803.06
2018-08-01T00:36:28.001Z,803.07
2018-08-01T00:36:32.201Z,803.06
2018-08-01T00:36:36.295Z,803.04
2018-08-01T00:36:40.489Z,803.06
2018-08-01T00:36:44.798Z,803.06
2018-08-01T00:36:48.994Z,803.09
2018-08-01T00:36:53.199Z,803.04
2018-08-01T00:36:57.293Z,803.04
2018-08-01T00:37:01.592Z,803.01
2018-08-01T00:37:05.789Z,803.04
2018-08-01T00:37:09.986Z,803.01
2018-08-01T00:37:14.077Z,803.03
2018-08-01T00:37:18.172Z,803.03
2018-08-01T00:37:22.154Z,802.98
2018-08-01T00:37:26.270Z,803
2018-08-01T00:37:30.576Z,803
2018-08-01T00:37:34.668Z,803.02
2018-08-01T00:37:38.971Z,803
2018-08-01T00:37:43.208Z,803
2018-08-01T00:37:47.509Z,803
2018-08-01T00:37:51.707Z,802.96
2018-08-01T00:37:55.936Z,802.99
2018-08-01T00:38:00.147Z,803
2018-08-01T00:38:04.453Z,802.96
2018-08-01T00:38:08.648Z,802.98
2018-08-01T00:38:12.844Z,802.98
2018-08-01T00:38:17.154Z,802.96
2018-08-01T00:38:21.254Z,803
2018-08-01T00:38:25.457Z,802.9
2018-08-01T00:38:29.440Z,802.9
2018-08-01T00:38:33.639Z,802.94
2018-08-01T00:38:37.834Z,802.92
2018-08-01T00:38:41.860Z,802.9
2018-08-01T00:38:46.018Z,802.93
2018-08-01T00:38:50.314Z,802.93
2018-08-01T00:38:54.513Z,802.84
2018-08-01T00:38:58.599Z,802.88
2018-08-01T00:39:02.706Z,802.86
2018-08-01T00:39:06.900Z,802.86
2018-08-01T00:39:11.101Z,802.89
2018-08-01T00:39:15.411Z,802.87
2018-08-01T00:39:19.392Z,802.87
2018-08-01T00:39:23.595Z,802.85
2018-08-01T00:39:27.576Z,802.85
2018-08-01T00:39:31.770Z,802.84
2018-08-01T00:39:35.857Z,802.87
2018-08-01T00:39:40.046Z,802.81
2018-08-01T00:39:44.036Z,802.85
2018-08-01T00:39:48.340Z,802.82
2018-08-01T00:39:52.539Z,802.84
2018-08-01T00:39:56.851Z,802.79
2018-08-01T00:40:01.149Z,802.8
2018-08-01T00:40:05.034Z,802.79
2018-08-01T00:40:09.230Z,802.79
2018-08-01T00:40:13.324Z,802.77
2018-08-01T00:40:17.631Z,802.79
2018-08-01T00:40:21.615Z,802.77
2018-08-01T00:40:25.812Z,802.79
2018-08-01T00:40:30.113Z,802.75
2018-08-01T00:40:34.200Z,802.79
2018-08-01T00:40:38.296Z,802.7
2018-08-01T00:40:42.386Z,802.73
2018-08-01T00:40:46.477Z,802.74
2018-08-01T00:40:50.778Z,802.68
2018-08-01T00:40:54.981Z,802.75
2018-08-01T00:40:59.295Z,802.77
2018-08-01T00:41:03.394Z,802.75
2018-08-01T00:41:07.591Z,802.73
2018-08-01T00:41:11.790Z,802.69
2018-08-01T00:41:15.987Z,802.7
2018-08-01T00:41:20.308Z,802.69
2018-08-01T00:41:24.625Z,802.68
2018-08-01T00:41:28.826Z,802.68
2018-08-01T00:41:32.920Z,802.66
2018-08-01T00:41:37.016Z,802.69
2018-08-01T00:41:41.216Z,802.69
2018-08-01T00:41:45.463Z,802.7
2018-08-01T00:41:49.457Z,802.61
2018-08-01T00:41:53.760Z,802.59
2018-08-01T00:41:58.063Z,802.61
2018-08-01T00:42:02.262Z,802.64
2018-08-01T00:42:06.359Z,802.63
2018-08-01T00:42:10.352Z,802.64
2018-08-01T00:42:14.660Z,802.58
2018-08-01T00:42:18.865Z,802.64
2018-08-01T00:42:23.181Z,802.58
2018-08-01T00:42:27.481Z,802.6
2018-08-01T00:42:31.573Z,802.6
2018-08-01T00:42:35.679Z,802.58
2018-08-01T00:42:39.774Z,802.61
2018-08-01T00:42:43.876Z,802.6
2018-08-01T00:42:47.868Z,802.6
2018-08-01T00:42:52.175Z,802.59
2018-08-01T00:42:56.274Z,802.62
2018-08-01T00:43:00.588Z,802.6
2018-08-01T00:43:04.786Z,802.58
2018-08-01T00:43:08.986Z,802.61
2018-08-01T00:43:13.186Z,802.59
2018-08-01T00:43:17.507Z,802.59
2018-08-01T00:43:21.812Z,802.61
2018-08-01T00:43:25.903Z,802.59
2018-08-01T00:43:30.106Z,802.57
2018-08-01T00:43:34.315Z,802.6
2018-08-01T00:43:38.409Z,802.59
2018-08-01T00:43:42.604Z,802.57
2018-08-01T00:43:46.802Z,802.6
2018-08-01T00:43:51.105Z,802.58
2018-08-01T00:43:55.351Z,802.58
2018-08-01T00:43:59.441Z,802.58
2018-08-01T00:44:03.431Z,802.59
2018-08-01T00:44:07.522Z,802.59
2018-08-01T00:44:11.618Z,802.61
2018-08-01T00:44:15.822Z,802.59
2018-08-01T00:44:20.128Z,802.61
2018-08-01T00:44:24.326Z,802.55
2018-08-01T00:44:28.520Z,802.58
2018-08-01T00:44:32.823Z,802.6
2018-08-01T00:44:37.139Z,802.61
2018-08-01T00:44:41.021Z,802.61
2018-08-01T00:44:45.350Z,802.6
2018-08-01T00:44:49.544Z,802.57
2018-08-01T00:44:53.841Z,802.64
2018-08-01T00:44:57.827Z,802.56
2018-08-01T00:45:02.139Z,802.63
2018-08-01T00:45:06.229Z,802.61
2018-08-01T00:45:10.213Z,802.65
2018-08-01T00:45:14.410Z,802.64
2018-08-01T00:45:18.605Z,802.63
2018-08-01T00:45:22.850Z,802.64
2018-08-01T00:45:27.078Z,802.65
2018-08-01T00:45:31.391Z,802.66
2018-08-01T00:45:35.708Z,802.68
2018-08-01T00:45:39.912Z,802.65
2018-08-01T00:45:44.004Z,802.67
2018-08-01T00:45:48.207Z,802.66
2018-08-01T00:45:52.511Z,802.65
2018-08-01T00:45:56.715Z,802.71
2018-08-01T00:46:00.703Z,802.68
2018-08-01T00:46:04.907Z,802.69
2018-08-01T00:46:08.783Z,802.66
2018-08-01T00:46:12.986Z,802.72
2018-08-01T00:46:17.198Z,802.71
2018-08-01T00:46:21.396Z,802.73
2018-08-01T00:46:25.710Z,802.72
2018-08-01T00:46:30.025Z,802.75
2018-08-01T00:46:34.227Z,802.73
2018-08-01T00:46:38.524Z,802.76
2018-08-01T00:46:42.612Z,802.75
2018-08-01T00:46:46.810Z,802.74
2018-08-01T00:46:51.119Z,802.71
2018-08-01T00:46:55.211Z,802.77
2018-08-01T00:46:59.450Z,802.74
2018-08-01T00:47:03.541Z,802.77
2018-08-01T00:47:07.864Z,802.77
2018-08-01T00:47:12.174Z,802.8
2018-08-01T00:47:16.483Z,802.83
2018-08-01T00:47:20.693Z,802.78
2018-08-01T00:47:24.890Z,802.83
2018-08-01T00:47:29.086Z,802.8
2018-08-01T00:47:33.178Z,802.86
2018-08-01T00:47:37.503Z,802.83
2018-08-01T00:47:41.491Z,802.87
2018-08-01T00:47:45.629Z,802.86
2018-08-01T00:47:49.824Z,802.8
2018-08-01T00:47:54.023Z,802.84
2018-08-01T00:47:58.341Z,802.88
2018-08-01T00:48:02.636Z,802.87
2018-08-01T00:48:06.732Z,802.87
2018-08-01T00:48:10.823Z,802.89
2018-08-01T00:48:15.029Z,802.88
2018-08-01T00:48:19.327Z,802.88
2018-08-01T00:48:23.530Z,802.88
2018-08-01T00:48:27.839Z,802.86
2018-08-01T00:48:31.938Z,802.91
2018-08-01T00:48:36.134Z,802.91
2018-08-01T00:48:40.337Z,802.89
2018-08-01T00:48:44.640Z,802.89
2018-08-01T00:48:48.842Z,802.92
2018-08-01T00:48:53.146Z,802.88
2018-08-01T00:48:57.344Z,802.97
2018-08-01T00:49:01.687Z,802.93
2018-08-01T00:49:05.889Z,802.89
2018-08-01T00:49:10.096Z,802.91
2018-08-01T00:49:14.409Z,802.95
2018-08-01T00:49:18.497Z,802.95
2018-08-01T00:49:22.692Z,802.95
2018-08-01T00:49:26.680Z,802.95
2018-08-01T00:49:30.880Z,802.99
2018-08-01T00:49:35.185Z,802.94
2018-08-01T00:49:39.486Z,802.97
2018-08-01T00:49:43.786Z,802.99
2018-08-01T00:49:47.991Z,802.97
2018-08-01T00:49:52.082Z,803
2018-08-01T00:49:56.169Z,803.03
2018-08-01T00:50:00.255Z,803.01
2018-08-01T00:50:04.372Z,802.98
2018-08-01T00:50:08.688Z,803.03
2018-08-01T00:50:12.899Z,803.04
2018-08-01T00:50:17.203Z,803.08
2018-08-01T00:50:21.399Z,803.07
2018-08-01T00:50:25.712Z,803.07
2018-08-01T00:50:29.920Z,803.07
2018-08-01T00:50:34.115Z,803.08
2018-08-01T00:50:38.318Z,803.1
2018-08-01T00:50:42.643Z,803.12
2018-08-01T00:50:46.947Z,803.14
2018-08-01T00:50:51.255Z,803.11
2018-08-01T00:50:55.458Z,803.1
2018-08-01T00:50:59.653Z,803.17
2018-08-01T00:51:03.846Z,803.15
2018-08-01T00:51:08.150Z,803.12
2018-08-01T00:51:12.358Z,803.19
2018-08-01T00:51:16.672Z,803.18
2018-08-01T00:51:20.871Z,803.21
2018-08-01T00:51:25.070Z,803.2
2018-08-01T00:51:29.053Z,803.22
2018-08-01T00:51:33.035Z,803.17
2018-08-01T00:51:37.336Z,803.23
2018-08-01T00:51:41.634Z,803.22
2018-08-01T00:51:45.632Z,803.24
2018-08-01T00:51:49.836Z,803.24
2018-08-01T00:51:53.929Z,803.27
2018-08-01T00:51:58.242Z,803.27
2018-08-01T00:52:02.698Z,803.27
2018-08-01T00:52:06.899Z,803.28
2018-08-01T00:52:11.095Z,803.27
2018-08-01T00:52:15.578Z,803.3
2018-08-01T00:52:19.906Z,803.32
2018-08-01T00:52:24.228Z,803.3
2018-08-01T00:52:28.219Z,803.32
2018-08-01T00:52:32.541Z,803.32
2018-08-01T00:52:36.740Z,803.33